sensor_id;sensor_type;location;lat;lon;timestamp;P1;durP1;ratioP1;P2;durP2;ratioP2
21198;SDS011;10757;51.038;3.712;2022-08-30T00:02:12;14.68;;;5.82;;
21198;SDS011;10757;51.038;3.712;2022-08-30T00:04:38;17.30;;;6.28;;
21198;SDS011;10757;51.038;3.712;2022-08-30T00:07:04;14.88;;;6.05;;
21198;SDS011;10757;51.038;3.712;2022-08-30T00:09:30;13.77;;;6.03;;
21198;SDS011;10757;51.038;3.712;2022-08-30T00:11:56;12.40;;;5.65;;
21198;SDS011;10757;51.038;3.712;2022-08-30T00:14:22;14.95;;;6.60;;
21198;SDS011;10757;51.038;3.712;2022-08-30T00:16:51;17.80;;;5.80;;
21198;SDS011;10757;51.038;3.712;2022-08-30T00:19:17;17.58;;;6.68;;
21198;SDS011;10757;51.038;3.712;2022-08-30T00:21:42;18.63;;;5.75;;
21198;SDS011;10757;51.038;3.712;2022-08-30T00:24:08;13.52;;;6.20;;
21198;SDS011;10757;51.038;3.712;2022-08-30T00:26:33;14.05;;;5.80;;
21198;SDS011;10757;51.038;3.712;2022-08-30T00:28:59;12.40;;;5.78;;
21198;SDS011;10757;51.038;3.712;2022-08-30T00:31:25;20.23;;;6.45;;
21198;SDS011;10757;51.038;3.712;2022-08-30T00:33:50;14.43;;;6.57;;
21198;SDS011;10757;51.038;3.712;2022-08-30T00:36:16;14.57;;;7.60;;
21198;SDS011;10757;51.038;3.712;2022-08-30T00:38:42;11.85;;;6.30;;
21198;SDS011;10757;51.038;3.712;2022-08-30T00:41:08;16.80;;;6.50;;
21198;SDS011;10757;51.038;3.712;2022-08-30T00:43:34;13.95;;;5.72;;
21198;SDS011;10757;51.038;3.712;2022-08-30T00:46:00;15.13;;;6.68;;
21198;SDS011;10757;51.038;3.712;2022-08-30T00:48:31;12.57;;;5.65;;
21198;SDS011;10757;51.038;3.712;2022-08-30T00:51:01;16.25;;;5.85;;
21198;SDS011;10757;51.038;3.712;2022-08-30T00:53:31;15.02;;;6.22;;
21198;SDS011;10757;51.038;3.712;2022-08-30T00:56:01;16.83;;;6.20;;
21198;SDS011;10757;51.038;3.712;2022-08-30T00:58:34;13.05;;;5.40;;
21198;SDS011;10757;51.038;3.712;2022-08-30T01:01:05;14.52;;;6.22;;
21198;SDS011;10757;51.038;3.712;2022-08-30T01:03:41;11.63;;;6.07;;
21198;SDS011;10757;51.038;3.712;2022-08-30T01:06:07;13.48;;;6.00;;
21198;SDS011;10757;51.038;3.712;2022-08-30T01:08:34;11.85;;;6.38;;
21198;SDS011;10757;51.038;3.712;2022-08-30T01:11:00;12.48;;;6.20;;
21198;SDS011;10757;51.038;3.712;2022-08-30T01:13:28;14.43;;;6.22;;
21198;SDS011;10757;51.038;3.712;2022-08-30T01:15:54;13.02;;;6.28;;
21198;SDS011;10757;51.038;3.712;2022-08-30T01:18:21;16.77;;;6.03;;
21198;SDS011;10757;51.038;3.712;2022-08-30T01:21:06;15.43;;;5.97;;
21198;SDS011;10757;51.038;3.712;2022-08-30T01:23:43;13.43;;;6.63;;
21198;SDS011;10757;51.038;3.712;2022-08-30T01:26:11;14.00;;;6.32;;
21198;SDS011;10757;51.038;3.712;2022-08-30T01:28:39;12.13;;;6.03;;
21198;SDS011;10757;51.038;3.712;2022-08-30T01:31:05;17.42;;;6.57;;
21198;SDS011;10757;51.038;3.712;2022-08-30T01:33:32;20.67;;;6.57;;
21198;SDS011;10757;51.038;3.712;2022-08-30T01:36:03;16.48;;;7.75;;
21198;SDS011;10757;51.038;3.712;2022-08-30T01:38:35;13.10;;;6.95;;
21198;SDS011;10757;51.038;3.712;2022-08-30T01:41:12;11.75;;;6.05;;
21198;SDS011;10757;51.038;3.712;2022-08-30T01:43:51;15.23;;;6.53;;
21198;SDS011;10757;51.038;3.712;2022-08-30T01:46:18;13.82;;;6.47;;
21198;SDS011;10757;51.038;3.712;2022-08-30T01:48:48;13.18;;;5.97;;
21198;SDS011;10757;51.038;3.712;2022-08-30T01:51:15;15.90;;;6.22;;
21198;SDS011;10757;51.038;3.712;2022-08-30T01:53:50;14.45;;;6.82;;
21198;SDS011;10757;51.038;3.712;2022-08-30T01:56:16;11.40;;;5.85;;
21198;SDS011;10757;51.038;3.712;2022-08-30T01:58:42;13.02;;;5.90;;
21198;SDS011;10757;51.038;3.712;2022-08-30T02:01:09;16.75;;;6.93;;
21198;SDS011;10757;51.038;3.712;2022-08-30T02:03:38;12.95;;;6.60;;
21198;SDS011;10757;51.038;3.712;2022-08-30T02:06:07;19.58;;;7.13;;
21198;SDS011;10757;51.038;3.712;2022-08-30T02:08:38;12.35;;;6.43;;
21198;SDS011;10757;51.038;3.712;2022-08-30T02:11:04;14.70;;;6.35;;
21198;SDS011;10757;51.038;3.712;2022-08-30T02:13:31;17.60;;;6.90;;
21198;SDS011;10757;51.038;3.712;2022-08-30T02:16:10;16.10;;;6.82;;
21198;SDS011;10757;51.038;3.712;2022-08-30T02:18:38;14.77;;;6.65;;
21198;SDS011;10757;51.038;3.712;2022-08-30T02:21:04;14.07;;;6.85;;
21198;SDS011;10757;51.038;3.712;2022-08-30T02:23:30;14.98;;;6.53;;
21198;SDS011;10757;51.038;3.712;2022-08-30T02:25:56;10.93;;;6.45;;
21198;SDS011;10757;51.038;3.712;2022-08-30T02:28:22;14.18;;;6.65;;
21198;SDS011;10757;51.038;3.712;2022-08-30T02:30:49;14.48;;;7.45;;
21198;SDS011;10757;51.038;3.712;2022-08-30T02:33:16;13.82;;;6.95;;
21198;SDS011;10757;51.038;3.712;2022-08-30T02:35:42;14.20;;;7.07;;
21198;SDS011;10757;51.038;3.712;2022-08-30T02:38:07;13.80;;;7.35;;
21198;SDS011;10757;51.038;3.712;2022-08-30T02:40:33;17.23;;;7.40;;
21198;SDS011;10757;51.038;3.712;2022-08-30T02:42:59;11.80;;;7.45;;
21198;SDS011;10757;51.038;3.712;2022-08-30T02:45:25;16.15;;;8.00;;
21198;SDS011;10757;51.038;3.712;2022-08-30T02:47:51;18.33;;;7.28;;
21198;SDS011;10757;51.038;3.712;2022-08-30T02:50:17;11.50;;;7.53;;
21198;SDS011;10757;51.038;3.712;2022-08-30T02:52:43;16.08;;;7.53;;
21198;SDS011;10757;51.038;3.712;2022-08-30T02:55:09;15.00;;;7.80;;
21198;SDS011;10757;51.038;3.712;2022-08-30T02:57:35;15.75;;;7.63;;
21198;SDS011;10757;51.038;3.712;2022-08-30T03:00:03;14.75;;;7.85;;
21198;SDS011;10757;51.038;3.712;2022-08-30T03:02:32;14.45;;;7.85;;
21198;SDS011;10757;51.038;3.712;2022-08-30T03:04:58;16.85;;;8.35;;
21198;SDS011;10757;51.038;3.712;2022-08-30T03:07:24;14.98;;;7.32;;
21198;SDS011;10757;51.038;3.712;2022-08-30T03:09:50;18.10;;;8.02;;
21198;SDS011;10757;51.038;3.712;2022-08-30T03:12:16;12.50;;;7.95;;
21198;SDS011;10757;51.038;3.712;2022-08-30T03:14:42;16.80;;;7.93;;
21198;SDS011;10757;51.038;3.712;2022-08-30T03:17:08;13.65;;;7.38;;
21198;SDS011;10757;51.038;3.712;2022-08-30T03:19:34;16.58;;;9.15;;
21198;SDS011;10757;51.038;3.712;2022-08-30T03:22:02;11.10;;;8.40;;
21198;SDS011;10757;51.038;3.712;2022-08-30T03:24:32;16.90;;;8.57;;
21198;SDS011;10757;51.038;3.712;2022-08-30T03:26:58;16.25;;;8.18;;
21198;SDS011;10757;51.038;3.712;2022-08-30T03:29:24;16.77;;;8.40;;
21198;SDS011;10757;51.038;3.712;2022-08-30T03:31:50;17.73;;;8.15;;
21198;SDS011;10757;51.038;3.712;2022-08-30T03:34:16;11.73;;;7.45;;
21198;SDS011;10757;51.038;3.712;2022-08-30T03:36:42;14.07;;;8.18;;
21198;SDS011;10757;51.038;3.712;2022-08-30T03:39:09;16.10;;;8.25;;
21198;SDS011;10757;51.038;3.712;2022-08-30T03:41:36;19.58;;;8.63;;
21198;SDS011;10757;51.038;3.712;2022-08-30T03:44:02;13.70;;;7.72;;
21198;SDS011;10757;51.038;3.712;2022-08-30T03:46:28;14.20;;;8.60;;
21198;SDS011;10757;51.038;3.712;2022-08-30T03:48:54;15.23;;;8.32;;
21198;SDS011;10757;51.038;3.712;2022-08-30T03:51:23;13.93;;;8.05;;
21198;SDS011;10757;51.038;3.712;2022-08-30T03:53:49;16.25;;;8.40;;
21198;SDS011;10757;51.038;3.712;2022-08-30T03:56:15;13.82;;;8.63;;
21198;SDS011;10757;51.038;3.712;2022-08-30T03:58:42;13.20;;;8.80;;
21198;SDS011;10757;51.038;3.712;2022-08-30T04:01:08;11.75;;;8.73;;
21198;SDS011;10757;51.038;3.712;2022-08-30T04:03:33;15.40;;;8.63;;
21198;SDS011;10757;51.038;3.712;2022-08-30T04:05:59;17.75;;;9.00;;
21198;SDS011;10757;51.038;3.712;2022-08-30T04:08:26;15.25;;;8.40;;
21198;SDS011;10757;51.038;3.712;2022-08-30T04:10:52;14.82;;;8.00;;
21198;SDS011;10757;51.038;3.712;2022-08-30T04:13:18;13.38;;;8.05;;
21198;SDS011;10757;51.038;3.712;2022-08-30T04:15:44;13.45;;;8.57;;
21198;SDS011;10757;51.038;3.712;2022-08-30T04:18:10;22.20;;;8.57;;
21198;SDS011;10757;51.038;3.712;2022-08-30T04:20:36;12.43;;;7.80;;
21198;SDS011;10757;51.038;3.712;2022-08-30T04:23:04;16.65;;;8.30;;
21198;SDS011;10757;51.038;3.712;2022-08-30T04:25:32;17.15;;;8.45;;
21198;SDS011;10757;51.038;3.712;2022-08-30T04:27:59;17.27;;;8.90;;
21198;SDS011;10757;51.038;3.712;2022-08-30T04:30:25;13.77;;;8.48;;
21198;SDS011;10757;51.038;3.712;2022-08-30T04:32:51;11.77;;;7.60;;
21198;SDS011;10757;51.038;3.712;2022-08-30T04:35:17;13.50;;;8.07;;
21198;SDS011;10757;51.038;3.712;2022-08-30T04:37:42;19.17;;;8.93;;
21198;SDS011;10757;51.038;3.712;2022-08-30T04:40:08;17.42;;;8.25;;
21198;SDS011;10757;51.038;3.712;2022-08-30T04:42:35;18.20;;;7.90;;
21198;SDS011;10757;51.038;3.712;2022-08-30T04:45:03;15.07;;;7.45;;
21198;SDS011;10757;51.038;3.712;2022-08-30T04:47:32;13.25;;;7.47;;
21198;SDS011;10757;51.038;3.712;2022-08-30T04:49:58;17.52;;;8.25;;
21198;SDS011;10757;51.038;3.712;2022-08-30T04:52:24;14.77;;;7.82;;
21198;SDS011;10757;51.038;3.712;2022-08-30T04:54:53;15.88;;;7.93;;
21198;SDS011;10757;51.038;3.712;2022-08-30T04:57:20;12.82;;;7.68;;
21198;SDS011;10757;51.038;3.712;2022-08-30T04:59:46;13.98;;;8.52;;
21198;SDS011;10757;51.038;3.712;2022-08-30T05:02:12;12.93;;;7.88;;
21198;SDS011;10757;51.038;3.712;2022-08-30T05:04:38;16.13;;;8.25;;
21198;SDS011;10757;51.038;3.712;2022-08-30T05:07:26;19.77;;;8.50;;
21198;SDS011;10757;51.038;3.712;2022-08-30T05:09:52;15.38;;;8.80;;
21198;SDS011;10757;51.038;3.712;2022-08-30T05:12:18;16.08;;;8.43;;
21198;SDS011;10757;51.038;3.712;2022-08-30T05:14:44;19.70;;;9.20;;
21198;SDS011;10757;51.038;3.712;2022-08-30T05:17:10;17.10;;;9.15;;
21198;SDS011;10757;51.038;3.712;2022-08-30T05:19:36;17.88;;;9.35;;
21198;SDS011;10757;51.038;3.712;2022-08-30T05:22:02;18.48;;;8.68;;
21198;SDS011;10757;51.038;3.712;2022-08-30T05:24:28;17.73;;;8.77;;
21198;SDS011;10757;51.038;3.712;2022-08-30T05:26:59;13.52;;;9.02;;
21198;SDS011;10757;51.038;3.712;2022-08-30T05:29:24;18.25;;;9.43;;
21198;SDS011;10757;51.038;3.712;2022-08-30T05:31:50;13.65;;;8.88;;
21198;SDS011;10757;51.038;3.712;2022-08-30T05:34:16;22.77;;;8.77;;
21198;SDS011;10757;51.038;3.712;2022-08-30T05:36:41;14.38;;;9.45;;
21198;SDS011;10757;51.038;3.712;2022-08-30T05:39:08;20.30;;;9.20;;
21198;SDS011;10757;51.038;3.712;2022-08-30T05:41:34;13.35;;;8.98;;
21198;SDS011;10757;51.038;3.712;2022-08-30T05:44:01;18.17;;;8.88;;
21198;SDS011;10757;51.038;3.712;2022-08-30T05:46:29;17.63;;;8.27;;
21198;SDS011;10757;51.038;3.712;2022-08-30T05:48:57;17.40;;;9.30;;
21198;SDS011;10757;51.038;3.712;2022-08-30T05:51:26;16.58;;;9.15;;
21198;SDS011;10757;51.038;3.712;2022-08-30T05:53:53;18.95;;;8.70;;
21198;SDS011;10757;51.038;3.712;2022-08-30T05:56:22;15.07;;;8.93;;
21198;SDS011;10757;51.038;3.712;2022-08-30T05:58:49;16.58;;;8.00;;
21198;SDS011;10757;51.038;3.712;2022-08-30T06:01:20;15.82;;;8.63;;
21198;SDS011;10757;51.038;3.712;2022-08-30T06:03:47;18.95;;;8.60;;
21198;SDS011;10757;51.038;3.712;2022-08-30T06:06:13;14.07;;;8.90;;
21198;SDS011;10757;51.038;3.712;2022-08-30T06:08:40;13.73;;;8.55;;
21198;SDS011;10757;51.038;3.712;2022-08-30T06:11:09;18.20;;;9.63;;
21198;SDS011;10757;51.038;3.712;2022-08-30T06:13:36;22.02;;;11.02;;
21198;SDS011;10757;51.038;3.712;2022-08-30T06:16:04;15.13;;;9.77;;
21198;SDS011;10757;51.038;3.712;2022-08-30T06:18:30;17.00;;;9.73;;
21198;SDS011;10757;51.038;3.712;2022-08-30T06:20:57;15.38;;;10.07;;
21198;SDS011;10757;51.038;3.712;2022-08-30T06:23:23;15.68;;;9.07;;
21198;SDS011;10757;51.038;3.712;2022-08-30T06:25:49;20.15;;;9.65;;
21198;SDS011;10757;51.038;3.712;2022-08-30T06:28:14;18.27;;;10.38;;
21198;SDS011;10757;51.038;3.712;2022-08-30T06:30:42;14.25;;;9.65;;
21198;SDS011;10757;51.038;3.712;2022-08-30T06:33:08;21.38;;;10.65;;
21198;SDS011;10757;51.038;3.712;2022-08-30T06:35:34;15.68;;;10.32;;
21198;SDS011;10757;51.038;3.712;2022-08-30T06:38:00;15.73;;;9.80;;
21198;SDS011;10757;51.038;3.712;2022-08-30T06:40:26;13.20;;;9.48;;
21198;SDS011;10757;51.038;3.712;2022-08-30T06:42:52;17.35;;;9.85;;
21198;SDS011;10757;51.038;3.712;2022-08-30T06:45:18;16.83;;;10.00;;
21198;SDS011;10757;51.038;3.712;2022-08-30T06:47:45;19.05;;;10.20;;
21198;SDS011;10757;51.038;3.712;2022-08-30T06:50:11;16.48;;;10.18;;
21198;SDS011;10757;51.038;3.712;2022-08-30T06:52:43;14.40;;;10.20;;
21198;SDS011;10757;51.038;3.712;2022-08-30T06:55:10;16.35;;;10.52;;
21198;SDS011;10757;51.038;3.712;2022-08-30T06:57:38;15.23;;;10.20;;
21198;SDS011;10757;51.038;3.712;2022-08-30T07:00:05;19.23;;;10.25;;
21198;SDS011;10757;51.038;3.712;2022-08-30T07:02:33;20.33;;;10.70;;
21198;SDS011;10757;51.038;3.712;2022-08-30T07:05:01;17.33;;;10.75;;
21198;SDS011;10757;51.038;3.712;2022-08-30T07:07:27;14.55;;;9.77;;
21198;SDS011;10757;51.038;3.712;2022-08-30T07:09:52;16.23;;;10.80;;
21198;SDS011;10757;51.038;3.712;2022-08-30T07:12:22;14.15;;;9.60;;
21198;SDS011;10757;51.038;3.712;2022-08-30T07:14:47;17.40;;;10.75;;
21198;SDS011;10757;51.038;3.712;2022-08-30T07:17:13;23.65;;;9.65;;
21198;SDS011;10757;51.038;3.712;2022-08-30T07:19:57;16.33;;;10.13;;
21198;SDS011;10757;51.038;3.712;2022-08-30T07:22:23;24.08;;;10.27;;
21198;SDS011;10757;51.038;3.712;2022-08-30T07:24:49;19.63;;;9.68;;
21198;SDS011;10757;51.038;3.712;2022-08-30T07:27:15;13.13;;;9.30;;
21198;SDS011;10757;51.038;3.712;2022-08-30T07:29:41;15.07;;;9.90;;
21198;SDS011;10757;51.038;3.712;2022-08-30T07:32:07;17.42;;;10.38;;
21198;SDS011;10757;51.038;3.712;2022-08-30T07:34:33;14.48;;;9.93;;
21198;SDS011;10757;51.038;3.712;2022-08-30T07:36:59;12.95;;;9.30;;
21198;SDS011;10757;51.038;3.712;2022-08-30T07:39:27;15.35;;;10.55;;
21198;SDS011;10757;51.038;3.712;2022-08-30T07:41:53;17.65;;;9.90;;
21198;SDS011;10757;51.038;3.712;2022-08-30T07:44:19;20.20;;;11.32;;
21198;SDS011;10757;51.038;3.712;2022-08-30T07:46:45;21.38;;;9.45;;
21198;SDS011;10757;51.038;3.712;2022-08-30T07:49:11;19.95;;;10.32;;
21198;SDS011;10757;51.038;3.712;2022-08-30T07:51:37;14.50;;;9.90;;
21198;SDS011;10757;51.038;3.712;2022-08-30T07:54:04;17.35;;;9.55;;
21198;SDS011;10757;51.038;3.712;2022-08-30T07:56:37;14.80;;;9.90;;
21198;SDS011;10757;51.038;3.712;2022-08-30T07:59:03;13.57;;;10.48;;
21198;SDS011;10757;51.038;3.712;2022-08-30T08:01:29;19.90;;;15.05;;
21198;SDS011;10757;51.038;3.712;2022-08-30T08:03:55;13.98;;;9.93;;
21198;SDS011;10757;51.038;3.712;2022-08-30T08:06:22;16.15;;;9.18;;
21198;SDS011;10757;51.038;3.712;2022-08-30T08:08:48;16.02;;;10.15;;
21198;SDS011;10757;51.038;3.712;2022-08-30T08:11:17;15.75;;;10.45;;
21198;SDS011;10757;51.038;3.712;2022-08-30T08:13:47;15.40;;;10.27;;
21198;SDS011;10757;51.038;3.712;2022-08-30T08:16:14;15.98;;;9.63;;
21198;SDS011;10757;51.038;3.712;2022-08-30T08:18:40;15.23;;;9.07;;
21198;SDS011;10757;51.038;3.712;2022-08-30T08:21:07;17.20;;;8.63;;
21198;SDS011;10757;51.038;3.712;2022-08-30T08:23:33;16.67;;;8.40;;
21198;SDS011;10757;51.038;3.712;2022-08-30T08:25:59;17.75;;;9.25;;
21198;SDS011;10757;51.038;3.712;2022-08-30T08:28:25;16.00;;;9.38;;
21198;SDS011;10757;51.038;3.712;2022-08-30T08:31:02;13.13;;;9.05;;
21198;SDS011;10757;51.038;3.712;2022-08-30T08:33:43;15.55;;;8.90;;
21198;SDS011;10757;51.038;3.712;2022-08-30T08:36:24;17.52;;;9.77;;
21198;SDS011;10757;51.038;3.712;2022-08-30T08:38:51;15.88;;;8.48;;
21198;SDS011;10757;51.038;3.712;2022-08-30T08:49:52;17.63;;;8.43;;
21198;SDS011;10757;51.038;3.712;2022-08-30T08:52:45;18.50;;;8.02;;
21198;SDS011;10757;51.038;3.712;2022-08-30T08:56:11;19.27;;;7.70;;
21198;SDS011;10757;51.038;3.712;2022-08-30T08:58:51;14.10;;;7.90;;
21198;SDS011;10757;51.038;3.712;2022-08-30T09:01:23;21.73;;;7.97;;
21198;SDS011;10757;51.038;3.712;2022-08-30T09:03:51;11.70;;;7.53;;
21198;SDS011;10757;51.038;3.712;2022-08-30T09:11:27;13.85;;;7.03;;
21198;SDS011;10757;51.038;3.712;2022-08-30T09:13:56;14.68;;;7.30;;
21198;SDS011;10757;51.038;3.712;2022-08-30T09:19:26;27.48;;;7.47;;
21198;SDS011;10757;51.038;3.712;2022-08-30T09:29:56;23.90;;;6.70;;
21198;SDS011;10757;51.038;3.712;2022-08-30T09:32:54;11.90;;;7.35;;
21198;SDS011;10757;51.038;3.712;2022-08-30T09:35:34;14.85;;;6.65;;
21198;SDS011;10757;51.038;3.712;2022-08-30T09:38:07;15.45;;;7.10;;
21198;SDS011;10757;51.038;3.712;2022-08-30T09:45:46;13.82;;;7.32;;
21198;SDS011;10757;51.038;3.712;2022-08-30T10:10:21;15.98;;;5.85;;
21198;SDS011;10757;51.038;3.712;2022-08-30T10:15:35;15.45;;;5.95;;
21198;SDS011;10757;51.038;3.712;2022-08-30T10:18:11;16.35;;;5.93;;
21198;SDS011;10757;51.038;3.712;2022-08-30T10:21:01;16.13;;;6.90;;
21198;SDS011;10757;51.038;3.712;2022-08-30T10:23:41;9.60;;;5.93;;
21198;SDS011;10757;51.038;3.712;2022-08-30T10:26:25;11.07;;;5.75;;
21198;SDS011;10757;51.038;3.712;2022-08-30T10:29:15;14.63;;;5.82;;
21198;SDS011;10757;51.038;3.712;2022-08-30T10:32:00;10.20;;;5.18;;
21198;SDS011;10757;51.038;3.712;2022-08-30T10:34:38;10.73;;;5.80;;
21198;SDS011;10757;51.038;3.712;2022-08-30T10:37:30;12.80;;;5.45;;
21198;SDS011;10757;51.038;3.712;2022-08-30T10:40:11;13.93;;;8.00;;
21198;SDS011;10757;51.038;3.712;2022-08-30T10:43:04;17.00;;;7.45;;
21198;SDS011;10757;51.038;3.712;2022-08-30T10:45:39;14.52;;;5.97;;
21198;SDS011;10757;51.038;3.712;2022-08-30T10:48:28;16.30;;;5.95;;
21198;SDS011;10757;51.038;3.712;2022-08-30T10:51:00;16.15;;;5.53;;
21198;SDS011;10757;51.038;3.712;2022-08-30T10:53:38;15.05;;;6.00;;
21198;SDS011;10757;51.038;3.712;2022-08-30T10:56:09;11.15;;;5.15;;
21198;SDS011;10757;51.038;3.712;2022-08-30T10:58:41;16.95;;;6.57;;
21198;SDS011;10757;51.038;3.712;2022-08-30T11:12:34;16.58;;;5.70;;
21198;SDS011;10757;51.038;3.712;2022-08-30T11:15:18;9.35;;;5.43;;
21198;SDS011;10757;51.038;3.712;2022-08-30T11:18:01;14.88;;;6.85;;
21198;SDS011;10757;51.038;3.712;2022-08-30T11:20:37;14.25;;;6.63;;
21198;SDS011;10757;51.038;3.712;2022-08-30T11:33:48;10.38;;;5.30;;
21198;SDS011;10757;51.038;3.712;2022-08-30T11:41:31;13.52;;;5.38;;
21198;SDS011;10757;51.038;3.712;2022-08-30T11:46:49;10.38;;;4.32;;
21198;SDS011;10757;51.038;3.712;2022-08-30T11:51:49;8.30;;;4.20;;
21198;SDS011;10757;51.038;3.712;2022-08-30T11:54:57;15.32;;;4.65;;
21198;SDS011;10757;51.038;3.712;2022-08-30T12:08:38;15.05;;;5.25;;
21198;SDS011;10757;51.038;3.712;2022-08-30T12:10:56;16.00;;;4.50;;
21198;SDS011;10757;51.038;3.712;2022-08-30T12:16:09;15.20;;;3.97;;
21198;SDS011;10757;51.038;3.712;2022-08-30T12:18:46;13.98;;;3.88;;
21198;SDS011;10757;51.038;3.712;2022-08-30T12:21:25;12.95;;;4.05;;
21198;SDS011;10757;51.038;3.712;2022-08-30T12:31:41;10.13;;;4.13;;
21198;SDS011;10757;51.038;3.712;2022-08-30T12:34:30;10.48;;;3.90;;
21198;SDS011;10757;51.038;3.712;2022-08-30T12:37:02;8.77;;;3.40;;
21198;SDS011;10757;51.038;3.712;2022-08-30T12:39:36;10.93;;;3.65;;
21198;SDS011;10757;51.038;3.712;2022-08-30T12:44:42;11.80;;;3.67;;
21198;SDS011;10757;51.038;3.712;2022-08-30T12:47:09;9.48;;;3.70;;
21198;SDS011;10757;51.038;3.712;2022-08-30T12:49:39;7.63;;;3.25;;
21198;SDS011;10757;51.038;3.712;2022-08-30T12:52:16;7.57;;;3.67;;
21198;SDS011;10757;51.038;3.712;2022-08-30T12:54:43;16.08;;;4.95;;
21198;SDS011;10757;51.038;3.712;2022-08-30T12:57:09;18.45;;;5.28;;
21198;SDS011;10757;51.038;3.712;2022-08-30T13:04:49;13.95;;;4.13;;
21198;SDS011;10757;51.038;3.712;2022-08-30T13:07:32;17.52;;;5.03;;
21198;SDS011;10757;51.038;3.712;2022-08-30T13:10:15;10.27;;;3.90;;
21198;SDS011;10757;51.038;3.712;2022-08-30T13:12:58;18.15;;;3.38;;
21198;SDS011;10757;51.038;3.712;2022-08-30T13:15:28;10.30;;;3.38;;
21198;SDS011;10757;51.038;3.712;2022-08-30T13:18:16;13.27;;;2.90;;
21198;SDS011;10757;51.038;3.712;2022-08-30T13:20:48;10.55;;;3.13;;
21198;SDS011;10757;51.038;3.712;2022-08-30T13:23:21;7.85;;;2.75;;
21198;SDS011;10757;51.038;3.712;2022-08-30T13:25:48;7.82;;;3.00;;
21198;SDS011;10757;51.038;3.712;2022-08-30T13:28:14;13.10;;;3.95;;
21198;SDS011;10757;51.038;3.712;2022-08-30T13:30:41;10.63;;;3.13;;
21198;SDS011;10757;51.038;3.712;2022-08-30T13:33:10;16.27;;;5.43;;
21198;SDS011;10757;51.038;3.712;2022-08-30T13:35:36;11.13;;;3.25;;
21198;SDS011;10757;51.038;3.712;2022-08-30T13:38:05;6.07;;;2.33;;
21198;SDS011;10757;51.038;3.712;2022-08-30T13:40:31;12.30;;;3.20;;
21198;SDS011;10757;51.038;3.712;2022-08-30T13:42:56;12.65;;;3.42;;
21198;SDS011;10757;51.038;3.712;2022-08-30T13:45:22;6.28;;;2.60;;
21198;SDS011;10757;51.038;3.712;2022-08-30T13:47:49;8.82;;;2.78;;
21198;SDS011;10757;51.038;3.712;2022-08-30T13:50:15;14.10;;;3.70;;
21198;SDS011;10757;51.038;3.712;2022-08-30T13:52:41;19.35;;;4.38;;
21198;SDS011;10757;51.038;3.712;2022-08-30T13:55:07;8.30;;;3.38;;
21198;SDS011;10757;51.038;3.712;2022-08-30T13:57:34;16.35;;;3.33;;
21198;SDS011;10757;51.038;3.712;2022-08-30T13:59:59;8.98;;;2.90;;
21198;SDS011;10757;51.038;3.712;2022-08-30T14:02:25;11.20;;;2.65;;
21198;SDS011;10757;51.038;3.712;2022-08-30T14:04:52;19.25;;;3.92;;
21198;SDS011;10757;51.038;3.712;2022-08-30T14:07:21;9.20;;;3.20;;
21198;SDS011;10757;51.038;3.712;2022-08-30T14:09:47;11.73;;;3.05;;
21198;SDS011;10757;51.038;3.712;2022-08-30T14:12:13;11.60;;;3.00;;
21198;SDS011;10757;51.038;3.712;2022-08-30T14:14:39;13.88;;;3.00;;
21198;SDS011;10757;51.038;3.712;2022-08-30T14:17:05;10.18;;;3.22;;
21198;SDS011;10757;51.038;3.712;2022-08-30T14:19:31;10.75;;;2.80;;
21198;SDS011;10757;51.038;3.712;2022-08-30T14:21:57;18.05;;;2.90;;
21198;SDS011;10757;51.038;3.712;2022-08-30T14:24:23;10.10;;;3.03;;
21198;SDS011;10757;51.038;3.712;2022-08-30T14:26:49;9.70;;;2.55;;
21198;SDS011;10757;51.038;3.712;2022-08-30T14:29:23;9.43;;;3.25;;
21198;SDS011;10757;51.038;3.712;2022-08-30T14:31:57;5.95;;;2.78;;
21198;SDS011;10757;51.038;3.712;2022-08-30T14:34:26;6.57;;;2.30;;
21198;SDS011;10757;51.038;3.712;2022-08-30T14:36:53;8.55;;;3.50;;
21198;SDS011;10757;51.038;3.712;2022-08-30T14:39:20;11.85;;;2.78;;
21198;SDS011;10757;51.038;3.712;2022-08-30T14:41:47;9.95;;;2.65;;
21198;SDS011;10757;51.038;3.712;2022-08-30T14:44:17;8.77;;;2.80;;
21198;SDS011;10757;51.038;3.712;2022-08-30T14:46:43;8.75;;;2.78;;
21198;SDS011;10757;51.038;3.712;2022-08-30T14:49:12;9.95;;;2.70;;
21198;SDS011;10757;51.038;3.712;2022-08-30T14:51:41;6.85;;;2.28;;
21198;SDS011;10757;51.038;3.712;2022-08-30T14:54:15;11.27;;;2.60;;
21198;SDS011;10757;51.038;3.712;2022-08-30T14:56:43;11.35;;;2.95;;
21198;SDS011;10757;51.038;3.712;2022-08-30T14:59:10;9.00;;;2.80;;
21198;SDS011;10757;51.038;3.712;2022-08-30T15:01:39;11.02;;;3.30;;
21198;SDS011;10757;51.038;3.712;2022-08-30T15:04:06;13.73;;;2.38;;
21198;SDS011;10757;51.038;3.712;2022-08-30T15:06:34;21.75;;;2.90;;
21198;SDS011;10757;51.038;3.712;2022-08-30T15:09:01;12.32;;;2.78;;
21198;SDS011;10757;51.038;3.712;2022-08-30T15:11:28;23.98;;;3.53;;
21198;SDS011;10757;51.038;3.712;2022-08-30T15:14:07;11.77;;;2.95;;
21198;SDS011;10757;51.038;3.712;2022-08-30T15:16:33;11.00;;;2.70;;
21198;SDS011;10757;51.038;3.712;2022-08-30T15:19:01;11.15;;;2.30;;
21198;SDS011;10757;51.038;3.712;2022-08-30T15:21:46;15.30;;;3.03;;
21198;SDS011;10757;51.038;3.712;2022-08-30T15:24:15;9.00;;;2.58;;
21198;SDS011;10757;51.038;3.712;2022-08-30T15:26:46;7.50;;;2.08;;
21198;SDS011;10757;51.038;3.712;2022-08-30T15:29:16;9.52;;;2.40;;
21198;SDS011;10757;51.038;3.712;2022-08-30T15:31:44;9.88;;;2.55;;
21198;SDS011;10757;51.038;3.712;2022-08-30T15:34:13;8.60;;;2.38;;
21198;SDS011;10757;51.038;3.712;2022-08-30T15:36:42;12.32;;;2.65;;
21198;SDS011;10757;51.038;3.712;2022-08-30T15:39:09;16.10;;;3.13;;
21198;SDS011;10757;51.038;3.712;2022-08-30T15:41:36;12.25;;;3.75;;
21198;SDS011;10757;51.038;3.712;2022-08-30T15:44:02;14.23;;;2.80;;
21198;SDS011;10757;51.038;3.712;2022-08-30T15:46:33;14.80;;;2.60;;
21198;SDS011;10757;51.038;3.712;2022-08-30T15:49:01;13.02;;;2.65;;
21198;SDS011;10757;51.038;3.712;2022-08-30T15:51:39;12.93;;;2.60;;
21198;SDS011;10757;51.038;3.712;2022-08-30T15:54:05;18.50;;;2.65;;
21198;SDS011;10757;51.038;3.712;2022-08-30T15:56:32;12.93;;;2.40;;
21198;SDS011;10757;51.038;3.712;2022-08-30T15:58:58;11.55;;;2.55;;
21198;SDS011;10757;51.038;3.712;2022-08-30T16:01:24;10.98;;;2.33;;
21198;SDS011;10757;51.038;3.712;2022-08-30T16:03:50;20.13;;;2.53;;
21198;SDS011;10757;51.038;3.712;2022-08-30T16:06:17;7.05;;;2.42;;
21198;SDS011;10757;51.038;3.712;2022-08-30T16:08:46;12.73;;;2.72;;
21198;SDS011;10757;51.038;3.712;2022-08-30T16:11:13;11.82;;;2.58;;
21198;SDS011;10757;51.038;3.712;2022-08-30T16:13:40;18.67;;;2.60;;
21198;SDS011;10757;51.038;3.712;2022-08-30T16:16:07;14.23;;;2.42;;
21198;SDS011;10757;51.038;3.712;2022-08-30T16:18:34;9.80;;;2.35;;
21198;SDS011;10757;51.038;3.712;2022-08-30T16:21:05;15.25;;;2.83;;
21198;SDS011;10757;51.038;3.712;2022-08-30T16:23:37;7.93;;;2.65;;
21198;SDS011;10757;51.038;3.712;2022-08-30T16:26:04;9.93;;;3.22;;
21198;SDS011;10757;51.038;3.712;2022-08-30T16:28:30;8.00;;;2.67;;
21198;SDS011;10757;51.038;3.712;2022-08-30T16:30:56;12.27;;;2.40;;
21198;SDS011;10757;51.038;3.712;2022-08-30T16:33:22;9.48;;;2.67;;
21198;SDS011;10757;51.038;3.712;2022-08-30T16:35:51;5.82;;;2.45;;
21198;SDS011;10757;51.038;3.712;2022-08-30T16:38:18;12.48;;;2.42;;
21198;SDS011;10757;51.038;3.712;2022-08-30T16:40:44;11.95;;;2.85;;
21198;SDS011;10757;51.038;3.712;2022-08-30T16:43:10;10.75;;;3.83;;
21198;SDS011;10757;51.038;3.712;2022-08-30T16:45:39;15.32;;;2.22;;